createdAt,value
2018-05-12T00:01:40.628Z,10.90
2018-05-12T00:04:10.851Z,12.30
2018-05-12T00:06:40.899Z,12.40
2018-05-12T00:09:11.387Z,12.30
2018-05-12T00:11:41.519Z,12.20
2018-05-12T00:14:11.672Z,12.10
2018-05-12T00:16:41.457Z,12.10
2018-05-12T00:19:11.575Z,15.70
2018-05-12T00:21:41.669Z,11.90
2018-05-12T00:24:12.482Z,11.90
2018-05-12T00:26:42.680Z,12.00
2018-05-12T00:29:12.767Z,11.90
2018-05-12T00:31:42.886Z,13.40
2018-05-12T00:34:13.043Z,11.90
2018-05-12T00:36:43.237Z,11.70
2018-05-12T00:39:13.292Z,11.80
2018-05-12T00:41:43.368Z,11.70
2018-05-12T00:44:13.483Z,11.50
2018-05-12T00:46:43.609Z,11.60
2018-05-12T00:49:13.759Z,11.60
2018-05-12T00:51:43.959Z,11.50
2018-05-12T00:54:13.664Z,11.40
2018-05-12T00:56:44.832Z,11.50
2018-05-12T00:59:14.931Z,11.50
2018-05-12T01:01:46.378Z,11.50
2018-05-12T01:04:17.108Z,11.50
2018-05-12T01:06:47.641Z,11.50
2018-05-12T01:09:18.080Z,11.50
2018-05-12T01:11:49.639Z,11.50
2018-05-12T01:14:22.880Z,11.60
2018-05-12T01:16:53.006Z,11.60
2018-05-12T01:19:23.728Z,11.70
2018-05-12T01:21:53.999Z,11.80
2018-05-12T01:24:25.249Z,11.70
2018-05-12T01:26:56.906Z,11.90
2018-05-12T01:29:29.695Z,11.80
2018-05-12T01:31:59.396Z,12.00
2018-05-12T01:34:29.112Z,12.00
2018-05-12T01:37:00.564Z,12.00
2018-05-12T01:39:32.864Z,12.00
2018-05-12T01:42:03.356Z,11.90
2018-05-12T01:44:34.507Z,12.00
2018-05-12T01:47:04.668Z,12.10
2018-05-12T01:49:34.536Z,12.00
2018-05-12T01:52:04.656Z,13.40
2018-05-12T01:54:37.493Z,12.00
2018-05-12T01:57:08.375Z,12.00
2018-05-12T01:59:38.908Z,12.00
2018-05-12T02:02:09.047Z,12.00
2018-05-12T02:04:39.152Z,12.00
2018-05-12T02:07:08.860Z,12.10
2018-05-12T02:09:38.979Z,12.10
2018-05-12T02:12:09.410Z,12.20
2018-05-12T02:14:39.559Z,12.20
2018-05-12T02:17:09.656Z,12.20
2018-05-12T02:19:39.872Z,11.90
2018-05-12T02:22:09.965Z,12.30
2018-05-12T02:24:40.111Z,12.30
2018-05-12T02:27:10.157Z,12.30
2018-05-12T02:29:39.941Z,12.30
2018-05-12T02:32:10.059Z,12.30
2018-05-12T02:34:40.187Z,12.30
2018-05-12T02:37:10.306Z,12.30
2018-05-12T02:39:40.395Z,12.30
2018-05-12T02:42:12.193Z,12.20
2018-05-12T02:44:45.028Z,12.20
2018-05-12T02:47:16.107Z,12.10
2018-05-12T02:49:46.780Z,12.00
2018-05-12T02:52:16.559Z,12.00
2018-05-12T02:54:49.069Z,11.90
2018-05-12T02:57:22.181Z,11.80
2018-05-12T02:59:52.960Z,11.80
2018-05-12T03:02:24.448Z,11.70
2018-05-12T03:04:55.604Z,11.60
2018-05-12T03:07:26.293Z,11.60
2018-05-12T03:09:57.428Z,11.50
2018-05-12T03:12:28.988Z,11.40
2018-05-12T03:14:59.921Z,11.30
2018-05-12T03:17:30.042Z,11.30
2018-05-12T03:20:00.593Z,11.20
2018-05-12T03:22:30.336Z,11.10
2018-05-12T03:25:00.401Z,11.10
2018-05-12T03:27:32.022Z,12.60
2018-05-12T03:30:01.372Z,10.90
2018-05-12T03:32:31.591Z,10.90
2018-05-12T03:35:01.309Z,10.80
2018-05-12T03:37:31.300Z,10.80
2018-05-12T03:40:01.939Z,10.80
2018-05-12T03:42:33.812Z,10.80
2018-05-12T03:45:04.688Z,10.80
2018-05-12T03:47:37.831Z,10.80
2018-05-12T03:50:07.557Z,10.80
2018-05-12T03:52:37.664Z,10.80
2018-05-12T03:55:07.786Z,10.80
2018-05-12T03:57:38.366Z,10.80
2018-05-12T04:00:08.438Z,10.80
2018-05-12T04:02:39.019Z,10.80
2018-05-12T04:05:20.240Z,10.80
2018-05-12T04:09:00.766Z,10.90
2018-05-12T04:12:36.061Z,10.90
2018-05-12T04:15:06.171Z,10.90
2018-05-12T04:17:36.012Z,11.00
2018-05-12T04:20:06.111Z,9.50
2018-05-12T04:22:38.036Z,11.10
2018-05-12T04:25:09.040Z,11.10
2018-05-12T04:27:39.599Z,11.40
2018-05-12T04:30:09.733Z,11.40
2018-05-12T04:32:40.449Z,11.60
2018-05-12T04:35:10.996Z,11.60
2018-05-12T04:37:41.255Z,11.90
2018-05-12T04:40:11.672Z,12.10
2018-05-12T04:42:41.804Z,12.70
2018-05-12T04:45:12.029Z,13.00
2018-05-12T04:47:42.120Z,15.60
2018-05-12T04:50:12.267Z,13.70
2018-05-12T04:52:43.421Z,14.10
2018-05-12T04:55:13.544Z,14.30
2018-05-12T04:57:43.657Z,14.60
2018-05-12T05:00:13.826Z,14.60
2018-05-12T05:02:43.869Z,15.60
2018-05-12T05:05:14.017Z,14.70
2018-05-12T05:07:43.775Z,14.40
2018-05-12T05:10:13.845Z,14.40
2018-05-12T05:12:43.970Z,14.30
2018-05-12T05:15:14.225Z,14.30
2018-05-12T05:17:44.312Z,14.30
2018-05-12T05:20:14.529Z,14.20
2018-05-12T05:22:44.649Z,14.20
2018-05-12T05:25:14.768Z,14.40
2018-05-12T05:27:44.981Z,15.80
2018-05-12T05:30:14.650Z,17.90
2018-05-12T05:32:44.723Z,19.70
2018-05-12T05:35:14.913Z,20.60
2018-05-12T05:37:45.164Z,21.80
2018-05-12T05:40:15.997Z,22.90
2018-05-12T05:42:45.923Z,23.90
2018-05-12T05:45:17.394Z,24.60
2018-05-12T05:47:48.017Z,25.20
2018-05-12T05:50:18.136Z,25.70
2018-05-12T05:52:48.251Z,26.20
2018-05-12T05:55:18.627Z,26.60
2018-05-12T05:57:49.800Z,27.20
2018-05-12T06:00:20.344Z,27.50
2018-05-12T06:02:53.647Z,27.90
2018-05-12T06:05:25.187Z,28.70
2018-05-12T06:07:55.857Z,29.60
2018-05-12T06:10:26.712Z,30.20
2018-05-12T06:12:58.266Z,30.50
2018-05-12T06:15:29.559Z,30.90
2018-05-12T06:18:00.875Z,31.00
2018-05-12T06:20:31.024Z,31.00
2018-05-12T06:23:01.404Z,31.40
2018-05-12T06:25:31.987Z,31.90
2018-05-12T06:28:02.512Z,32.30
2018-05-12T06:30:34.284Z,32.60
2018-05-12T06:33:05.319Z,33.00
2018-05-12T06:35:35.647Z,33.50
2018-05-12T06:38:05.759Z,33.90
2018-05-12T06:40:35.920Z,33.90
2018-05-12T06:43:06.016Z,34.40
2018-05-12T06:45:36.119Z,35.20
2018-05-12T06:48:07.527Z,35.50
2018-05-12T06:50:39.208Z,35.80
2018-05-12T06:53:10.378Z,36.30
2018-05-12T06:55:42.131Z,36.60
2018-05-12T06:58:12.264Z,36.90
2018-05-12T07:00:43.898Z,37.30
2018-05-12T07:03:14.444Z,38.00
2018-05-12T07:05:45.279Z,38.50
2018-05-12T07:10:55.551Z,38.50
2018-05-12T07:13:28.954Z,38.30
2018-05-12T07:15:59.366Z,38.40
2018-05-12T07:18:29.595Z,38.20
2018-05-12T07:21:00.601Z,38.00
2018-05-12T07:23:30.664Z,36.80
2018-05-12T07:26:00.713Z,38.70
2018-05-12T07:28:30.493Z,38.30
2018-05-12T07:31:00.604Z,38.40
2018-05-12T07:33:30.764Z,38.60
2018-05-12T07:36:00.840Z,38.80
2018-05-12T07:38:31.047Z,38.70
2018-05-12T07:41:00.792Z,38.00
2018-05-12T07:43:30.902Z,37.30
2018-05-12T07:46:01.073Z,37.40
2018-05-12T07:48:30.789Z,37.60
2018-05-12T07:51:00.863Z,38.00
2018-05-12T07:53:30.569Z,37.90
2018-05-12T07:56:00.679Z,37.80
2018-05-12T07:58:30.940Z,37.70
2018-05-12T08:01:02.032Z,35.70
2018-05-12T08:03:32.257Z,36.80
2018-05-12T08:06:03.408Z,36.70
2018-05-12T08:08:33.598Z,36.90
2018-05-12T08:11:05.144Z,36.90
2018-05-12T08:13:38.487Z,36.70
2018-05-12T08:16:10.432Z,36.40
2018-05-12T08:18:41.532Z,35.80
2018-05-12T08:21:12.758Z,35.60
2018-05-12T08:23:50.419Z,35.60
2018-05-12T08:26:21.983Z,35.70
2018-05-12T08:28:53.679Z,35.60
2018-05-12T08:31:24.398Z,35.60
2018-05-12T08:33:55.314Z,35.30
2018-05-12T08:36:25.395Z,35.40
2018-05-12T08:38:55.667Z,35.90
2018-05-12T08:41:25.784Z,35.80
2018-05-12T08:43:55.900Z,35.70
2018-05-12T08:46:25.935Z,35.60
2018-05-12T08:48:56.040Z,35.60
2018-05-12T08:51:26.262Z,36.10
2018-05-12T08:53:56.396Z,36.40
2018-05-12T08:56:26.560Z,36.40
2018-05-12T08:58:56.680Z,36.30
2018-05-12T09:01:26.840Z,35.70
2018-05-12T09:03:57.083Z,35.60
2018-05-12T09:06:26.781Z,35.60
2018-05-12T09:08:58.251Z,35.50
2018-05-12T09:11:28.720Z,35.50
2018-05-12T09:13:59.328Z,35.30
2018-05-12T09:16:29.815Z,35.50
2018-05-12T09:19:01.683Z,35.60
2018-05-12T09:21:33.097Z,35.60
2018-05-12T09:24:05.755Z,35.60
2018-05-12T09:26:35.934Z,35.90
2018-05-12T09:29:06.056Z,36.40
2018-05-12T09:31:37.159Z,36.10
2018-05-12T09:34:07.315Z,36.10
2018-05-12T09:36:37.540Z,36.10
2018-05-12T09:39:07.672Z,36.00
2018-05-12T09:41:37.795Z,35.50
2018-05-12T09:44:07.750Z,35.40
2018-05-12T09:46:37.817Z,34.10
2018-05-12T09:49:07.909Z,35.10
2018-05-12T09:51:49.951Z,35.10
2018-05-12T09:54:20.756Z,35.00
2018-05-12T09:56:51.088Z,35.80
2018-05-12T09:59:21.323Z,35.20
2018-05-12T10:01:52.513Z,35.50
2018-05-12T10:04:37.481Z,35.40
2018-05-12T10:07:07.236Z,35.00
2018-05-12T10:09:39.271Z,33.30
2018-05-12T10:12:10.059Z,31.60
2018-05-12T10:14:42.252Z,31.00
2018-05-12T10:17:12.588Z,31.10
2018-05-12T10:19:49.059Z,31.90
2018-05-12T10:22:24.016Z,31.70
2018-05-12T10:24:54.120Z,30.80
2018-05-12T10:27:24.121Z,30.10
2018-05-12T10:29:54.119Z,29.70
2018-05-12T10:32:24.117Z,29.10
2018-05-12T10:34:54.232Z,28.80
2018-05-12T10:37:27.985Z,29.10
2018-05-12T10:39:57.985Z,27.20
2018-05-12T10:42:28.021Z,28.10
2018-05-12T10:44:58.052Z,27.70
2018-05-12T10:47:29.611Z,27.70
2018-05-12T10:50:01.317Z,28.90
2018-05-12T10:52:32.652Z,30.40
2018-05-12T10:55:02.992Z,31.30
2018-05-12T10:57:33.188Z,31.80
2018-05-12T11:00:13.484Z,31.50
2018-05-12T11:02:58.120Z,30.80
2018-05-12T11:05:28.345Z,30.00
2018-05-12T11:07:59.485Z,29.60
2018-05-12T11:10:29.349Z,29.90
2018-05-12T11:12:59.543Z,30.20
2018-05-12T11:15:31.404Z,29.60
2018-05-12T11:18:04.162Z,29.00
2018-05-12T11:20:36.096Z,28.70
2018-05-12T11:23:07.153Z,28.60
2018-05-12T11:25:37.604Z,29.50
2018-05-12T11:28:09.051Z,30.50
2018-05-12T11:30:46.426Z,31.30
2018-05-12T11:33:17.553Z,30.80
2018-05-12T11:35:47.919Z,29.90
2018-05-12T11:38:18.064Z,29.70
2018-05-12T11:40:48.217Z,29.70
2018-05-12T11:43:18.361Z,29.60
2018-05-12T11:45:48.543Z,30.50
2018-05-12T11:48:18.663Z,31.30
2018-05-12T11:50:55.888Z,32.10
2018-05-12T11:53:26.413Z,31.70
2018-05-12T11:55:57.682Z,31.70
2018-05-12T11:58:27.537Z,32.20
2018-05-12T12:00:57.349Z,32.40
2018-05-12T12:03:27.720Z,32.70
2018-05-12T12:05:57.943Z,32.90
2018-05-12T12:08:28.690Z,33.40
2018-05-12T12:10:58.891Z,33.40
2018-05-12T12:13:28.717Z,33.40
2018-05-12T12:15:58.637Z,33.50
2018-05-12T12:18:33.541Z,33.70
2018-05-12T12:21:23.582Z,33.80
2018-05-12T12:23:54.484Z,33.60
2018-05-12T12:26:26.327Z,33.70
2018-05-12T12:29:10.426Z,33.80
2018-05-12T12:31:41.424Z,33.40
2018-05-12T12:34:13.132Z,33.20
2018-05-12T12:36:44.008Z,32.70
2018-05-12T12:39:15.559Z,32.50
2018-05-12T12:41:46.697Z,32.40
2018-05-12T12:44:17.075Z,32.70
2018-05-12T12:46:47.763Z,32.90
2018-05-12T12:49:20.608Z,33.10
2018-05-12T12:51:57.356Z,33.00
2018-05-12T12:54:29.958Z,33.20
2018-05-12T12:57:15.240Z,33.20
2018-05-12T12:59:45.843Z,32.90
2018-05-12T13:02:16.331Z,32.80
2018-05-12T13:04:47.595Z,32.40
2018-05-12T13:07:18.361Z,32.30
2018-05-12T13:09:48.818Z,32.10
2018-05-12T13:12:19.345Z,31.60
2018-05-12T13:14:49.920Z,31.30
2018-05-12T13:17:19.755Z,31.10
2018-05-12T13:19:52.150Z,31.20
2018-05-12T13:22:35.009Z,31.20
2018-05-12T13:25:14.989Z,31.00
2018-05-12T13:27:58.844Z,30.40
2018-05-12T13:30:30.089Z,30.40
2018-05-12T13:33:01.098Z,30.30
2018-05-12T13:35:39.773Z,30.10
2018-05-12T13:38:13.002Z,29.90
2018-05-12T13:40:44.568Z,29.90
2018-05-12T13:43:25.363Z,29.80
2018-05-12T22:33:21.880Z,19.70
2018-05-12T22:35:52.110Z,19.50
2018-05-12T22:38:22.640Z,19.40
2018-05-12T22:40:52.760Z,19.40
2018-05-12T22:43:23.496Z,19.40
2018-05-12T22:45:58.940Z,19.30
2018-05-12T22:48:29.112Z,19.30
2018-05-12T22:50:59.158Z,19.30
2018-05-12T22:53:30.206Z,19.30
2018-05-12T22:56:01.108Z,19.30
2018-05-12T22:58:31.153Z,19.40
2018-05-12T23:01:01.186Z,19.40
2018-05-12T23:03:30.934Z,19.40
2018-05-12T23:06:01.021Z,19.40
2018-05-12T23:08:31.151Z,19.40
2018-05-12T23:11:01.302Z,19.40
2018-05-12T23:13:31.422Z,19.40
2018-05-12T23:16:01.512Z,21.00
2018-05-12T23:18:31.707Z,19.30
2018-05-12T23:21:01.853Z,19.50
2018-05-12T23:23:34.040Z,19.50
2018-05-12T23:26:04.143Z,19.40
2018-05-12T23:28:34.324Z,19.30
2018-05-12T23:31:04.431Z,19.10
2018-05-12T23:33:35.326Z,19.10
2018-05-12T23:36:05.491Z,19.10
2018-05-12T23:38:35.615Z,19.10
2018-05-12T23:41:05.697Z,19.10
2018-05-12T23:43:36.216Z,19.10
2018-05-12T23:46:07.268Z,19.20
2018-05-12T23:48:38.020Z,19.20
2018-05-12T23:51:08.412Z,19.20
2018-05-12T23:53:38.560Z,19.20
2018-05-12T23:56:08.663Z,19.30
2018-05-12T23:58:39.394Z,19.30
